createdAt,value
2022-09-26T00:03:04.687Z,98909.91
2022-09-26T00:05:33.901Z,98909.16
2022-09-26T00:08:01.250Z,98900.34
2022-09-26T00:10:28.276Z,98905.63
2022-09-26T00:12:55.834Z,98900.09
2022-09-26T00:15:23.334Z,98892.63
2022-09-26T00:17:50.424Z,98893.28
2022-09-26T00:20:17.919Z,98891.50
2022-09-26T00:22:44.865Z,98890.53
2022-09-26T00:25:12.045Z,98886.94
2022-09-26T00:27:38.926Z,98867.94
2022-09-26T00:30:06.743Z,98874.00
2022-09-26T00:32:33.626Z,98866.31
2022-09-26T00:35:00.543Z,98861.00
2022-09-26T00:37:27.464Z,98850.59
2022-09-26T00:39:54.425Z,98859.94
2022-09-26T00:42:22.773Z,98851.53
2022-09-26T00:44:54.769Z,98843.41
2022-09-26T00:47:31.265Z,98837.19
2022-09-26T00:50:10.865Z,98844.25
2022-09-26T00:52:43.411Z,98840.91
2022-09-26T00:55:14.286Z,98841.69
2022-09-26T00:58:01.235Z,98836.31
2022-09-26T01:00:28.413Z,98832.78
2022-09-26T01:02:55.606Z,98829.34
2022-09-26T01:05:24.340Z,98841.41
2022-09-26T01:07:57.057Z,98844.13
2022-09-26T01:10:24.771Z,98831.13
2022-09-26T01:12:52.605Z,98847.13
2022-09-26T01:15:19.884Z,98835.69
2022-09-26T01:17:50.585Z,98839.34
2022-09-26T01:20:33.485Z,98833.31
2022-09-26T01:23:38.016Z,98827.56
2022-09-26T01:26:19.972Z,98824.75
2022-09-26T01:29:04.353Z,98817.69
2022-09-26T01:31:42.810Z,98815.34
2022-09-26T01:34:24.655Z,98808.41
2022-09-26T01:37:00.703Z,98811.00
2022-09-26T01:39:49.456Z,98818.66
2022-09-26T01:42:22.344Z,98818.53
2022-09-26T01:45:01.354Z,98806.31
2022-09-26T01:47:31.102Z,98803.66
2022-09-26T01:50:08.230Z,98799.59
2022-09-26T01:52:46.286Z,98797.06
2022-09-26T01:55:25.525Z,98783.88
2022-09-26T01:58:17.022Z,98797.22
2022-09-26T02:00:47.677Z,98789.31
2022-09-26T02:03:20.205Z,98783.38
2022-09-26T02:05:53.713Z,98783.16
2022-09-26T02:09:05.522Z,98791.75
2022-09-26T02:11:32.359Z,98784.69
2022-09-26T02:14:06.794Z,98778.78
2022-09-26T02:16:48.247Z,98775.22
2022-09-26T02:19:35.637Z,98780.56
2022-09-26T02:22:03.260Z,98763.88
2022-09-26T02:24:30.250Z,98761.53
2022-09-26T02:26:57.564Z,98768.38
2022-09-26T02:29:24.653Z,98755.38
2022-09-26T02:31:57.080Z,98758.41
2022-09-26T02:34:25.916Z,98746.81
2022-09-26T02:36:55.172Z,98758.88
2022-09-26T02:39:22.127Z,98753.63
2022-09-26T02:41:57.287Z,98756.06
2022-09-26T02:45:01.007Z,98762.06
2022-09-26T02:47:39.983Z,98757.66
2022-09-26T02:50:39.323Z,98754.06
2022-09-26T02:53:31.655Z,98760.94
2022-09-26T02:56:14.540Z,98765.34
2022-09-26T02:58:54.625Z,98765.28
2022-09-26T03:01:31.654Z,98764.50
2022-09-26T03:04:22.845Z,98770.56
2022-09-26T03:06:56.468Z,98776.59
2022-09-26T03:09:25.384Z,98771.34
2022-09-26T03:11:53.868Z,98773.00
2022-09-26T03:14:23.356Z,98776.63
2022-09-26T03:16:51.626Z,98786.97
2022-09-26T03:19:36.368Z,98779.09
2022-09-26T03:22:03.403Z,98766.28
2022-09-26T03:24:30.434Z,98763.09
2022-09-26T03:26:58.477Z,98742.09
2022-09-26T03:29:25.919Z,98751.50
2022-09-26T03:31:53.298Z,98764.56
2022-09-26T03:34:20.317Z,98761.88
2022-09-26T03:36:47.196Z,98754.88
2022-09-26T03:39:14.284Z,98754.00
2022-09-26T03:41:42.306Z,98762.69
2022-09-26T03:44:12.155Z,98751.44
2022-09-26T03:46:40.251Z,98741.88
2022-09-26T03:49:07.533Z,98751.44
2022-09-26T03:51:34.580Z,98748.00
2022-09-26T03:54:01.623Z,98742.72
2022-09-26T03:56:28.740Z,98741.81
2022-09-26T03:58:55.676Z,98731.41
2022-09-26T04:01:23.239Z,98722.69
2022-09-26T04:03:51.357Z,98722.69
2022-09-26T04:06:20.820Z,98733.16
2022-09-26T04:08:51.048Z,98719.19
2022-09-26T04:11:20.313Z,98718.34
2022-09-26T04:13:53.333Z,98724.34
2022-09-26T04:16:23.311Z,98718.38
2022-09-26T04:18:55.621Z,98720.88
2022-09-26T04:21:22.603Z,98724.28
2022-09-26T04:23:50.490Z,98721.06
2022-09-26T04:26:23.235Z,98715.25
2022-09-26T04:28:55.535Z,98719.06
2022-09-26T04:31:24.256Z,98720.69
2022-09-26T04:33:51.260Z,98708.50
2022-09-26T04:36:18.467Z,98692.78
2022-09-26T04:38:45.474Z,98686.78
2022-09-26T04:41:14.965Z,98680.53
2022-09-26T04:43:42.756Z,98693.63
2022-09-26T04:46:15.945Z,98687.50
2022-09-26T04:48:46.835Z,98669.19
2022-09-26T04:51:20.813Z,98694.38
2022-09-26T04:53:48.121Z,98695.00
2022-09-26T04:56:16.071Z,98680.19
2022-09-26T04:58:44.282Z,98682.72
2022-09-26T05:01:13.347Z,98692.25
2022-09-26T05:03:41.995Z,98682.56
2022-09-26T05:06:10.773Z,98690.47
2022-09-26T05:08:42.744Z,98689.59
2022-09-26T05:11:10.056Z,98693.72
2022-09-26T05:13:38.112Z,98692.13
2022-09-26T05:16:12.620Z,98683.63
2022-09-26T05:18:39.882Z,98702.91
2022-09-26T05:21:07.802Z,98692.63
2022-09-26T05:23:55.028Z,98694.34
2022-09-26T05:26:28.154Z,98683.34
2022-09-26T05:28:58.335Z,98674.78
2022-09-26T05:31:29.171Z,98693.69
2022-09-26T05:33:59.396Z,98690.34
2022-09-26T05:36:27.520Z,98712.81
2022-09-26T05:38:54.657Z,98703.13
2022-09-26T05:41:21.646Z,98689.97
2022-09-26T05:43:48.776Z,98683.75
2022-09-26T05:46:16.095Z,98665.41
2022-09-26T05:48:43.066Z,98657.91
2022-09-26T05:51:15.220Z,98637.00
2022-09-26T05:53:46.258Z,98624.97
2022-09-26T05:56:18.534Z,98627.00
2022-09-26T05:58:46.251Z,98622.69
2022-09-26T06:01:18.051Z,98612.06
2022-09-26T06:03:46.921Z,98614.56
2022-09-26T06:06:19.333Z,98611.19
2022-09-26T06:08:47.030Z,98611.59
2022-09-26T06:11:16.703Z,98607.72
2022-09-26T06:13:46.017Z,98616.00
2022-09-26T06:16:18.529Z,98612.47
2022-09-26T06:18:47.102Z,98620.44
2022-09-26T06:21:17.351Z,98626.78
2022-09-26T06:23:45.242Z,98635.38
2022-09-26T06:26:17.573Z,98626.84
2022-09-26T06:28:44.709Z,98620.88
2022-09-26T06:31:16.857Z,98625.91
2022-09-26T06:33:44.275Z,98612.66
2022-09-26T06:36:12.016Z,98611.06
2022-09-26T06:38:38.969Z,98611.38
2022-09-26T06:41:07.592Z,98609.00
2022-09-26T06:43:34.866Z,98611.81
2022-09-26T06:46:01.848Z,98617.06
2022-09-26T06:48:28.634Z,98620.94
2022-09-26T06:51:00.311Z,98607.13
2022-09-26T06:53:28.102Z,98616.59
2022-09-26T06:55:55.143Z,98634.66
2022-09-26T06:58:22.086Z,98635.25
2022-09-26T07:00:49.071Z,98641.88
2022-09-26T07:03:16.114Z,98649.75
2022-09-26T07:05:45.504Z,98636.75
2022-09-26T07:08:12.636Z,98634.16
2022-09-26T07:10:39.590Z,98643.31
2022-09-26T07:13:09.581Z,98636.69
2022-09-26T07:15:37.626Z,98632.81
2022-09-26T07:18:06.571Z,98631.34
2022-09-26T07:20:38.087Z,98643.94
2022-09-26T07:23:06.219Z,98640.72
2022-09-26T07:25:33.611Z,98640.34
2022-09-26T07:28:01.965Z,98641.50
2022-09-26T07:30:28.996Z,98644.22
2022-09-26T07:33:03.206Z,98638.34
2022-09-26T07:35:32.000Z,98636.63
2022-09-26T07:37:59.486Z,98617.09
2022-09-26T07:40:27.290Z,98619.69
2022-09-26T07:43:18.417Z,98617.94
2022-09-26T07:46:04.127Z,98619.91
2022-09-26T07:48:49.815Z,98610.44
2022-09-26T07:51:16.831Z,98615.00
2022-09-26T07:53:43.727Z,98615.13
2022-09-26T07:56:10.798Z,98619.34
2022-09-26T07:58:43.292Z,98611.47
2022-09-26T08:01:12.908Z,98604.06
2022-09-26T08:03:44.520Z,98602.56
2022-09-26T08:06:13.155Z,98604.28
2022-09-26T08:08:41.504Z,98594.72
2022-09-26T08:11:16.488Z,98614.34
2022-09-26T08:13:44.209Z,98616.97
2022-09-26T08:16:12.007Z,98620.66
2022-09-26T08:18:38.897Z,98608.72
2022-09-26T08:21:06.666Z,98619.38
2022-09-26T08:23:34.547Z,98601.00
2022-09-26T08:26:07.124Z,98602.28
2022-09-26T08:28:38.547Z,98609.31
2022-09-26T08:31:06.319Z,98585.50
2022-09-26T08:33:39.022Z,98596.69
2022-09-26T08:36:08.214Z,98591.41
2022-09-26T08:38:36.583Z,98595.16
2022-09-26T08:41:19.073Z,98599.41
2022-09-26T08:43:52.682Z,98597.78
2022-09-26T08:46:54.949Z,98599.44
2022-09-26T08:49:53.040Z,98585.81
2022-09-26T08:52:25.903Z,98576.63
2022-09-26T08:54:56.721Z,98586.91
2022-09-26T08:57:44.005Z,98577.91
2022-09-26T09:00:21.383Z,98582.97
2022-09-26T09:03:03.480Z,98588.69
2022-09-26T09:05:46.830Z,98580.88
2022-09-26T09:08:22.270Z,98576.72
2022-09-26T09:11:04.043Z,98577.44
2022-09-26T09:13:58.251Z,98586.44
2022-09-26T09:16:31.168Z,98578.81
2022-09-26T09:19:09.222Z,98583.63
2022-09-26T09:21:54.545Z,98569.78
2022-09-26T09:24:56.072Z,98559.47
2022-09-26T09:27:53.672Z,98567.38
2022-09-26T09:30:31.271Z,98579.94
2022-09-26T09:33:05.917Z,98584.28
2022-09-26T09:35:56.914Z,98579.03
2022-09-26T09:38:29.203Z,98566.09
2022-09-26T09:41:04.674Z,98559.22
2022-09-26T09:43:40.071Z,98561.69
2022-09-26T09:46:15.946Z,98553.63
2022-09-26T09:48:44.209Z,98558.34
2022-09-26T09:51:16.834Z,98564.28
2022-09-26T09:54:21.262Z,98562.44
2022-09-26T09:56:57.010Z,98563.69
2022-09-26T09:59:26.642Z,98559.00
2022-09-26T10:02:19.614Z,98556.22
2022-09-26T10:04:59.362Z,98560.34
2022-09-26T10:07:27.353Z,98571.50
2022-09-26T10:09:54.303Z,98573.84
2022-09-26T10:12:29.770Z,98567.59
2022-09-26T10:15:02.975Z,98569.06
2022-09-26T10:17:29.974Z,98572.28
2022-09-26T10:19:57.256Z,98568.19
2022-09-26T10:22:37.746Z,98565.81
2022-09-26T10:25:18.764Z,98577.63
2022-09-26T10:27:53.383Z,98568.16
2022-09-26T10:30:20.359Z,98566.22
2022-09-26T10:32:56.063Z,98556.03
2022-09-26T10:35:32.209Z,98570.91
2022-09-26T10:38:06.334Z,98564.81
2022-09-26T10:40:48.045Z,98563.88
2022-09-26T10:43:36.247Z,98558.00
2022-09-26T10:46:10.706Z,98551.31
2022-09-26T10:48:54.406Z,98544.94
2022-09-26T10:51:30.470Z,98545.00
2022-09-26T10:54:09.453Z,98522.59
2022-09-26T10:56:45.989Z,98525.91
2022-09-26T10:59:14.586Z,98525.75
2022-09-26T11:01:52.049Z,98527.34
2022-09-26T11:04:44.233Z,98525.00
2022-09-26T11:07:26.728Z,98530.16
2022-09-26T11:10:00.112Z,98525.50
2022-09-26T11:12:29.648Z,98517.34
2022-09-26T11:15:10.879Z,98529.09
2022-09-26T11:17:45.440Z,98533.94
2022-09-26T11:20:21.481Z,98520.78
2022-09-26T11:23:02.950Z,98519.47
2022-09-26T11:25:40.763Z,98515.28
2022-09-26T11:28:16.319Z,98509.94
2022-09-26T11:30:48.396Z,98516.22
2022-09-26T11:33:18.912Z,98507.53
2022-09-26T11:36:14.960Z,98498.06
2022-09-26T11:38:47.941Z,98495.88
2022-09-26T11:41:39.201Z,98480.44
2022-09-26T11:44:31.934Z,98471.06
2022-09-26T11:47:39.280Z,98474.28
2022-09-26T11:50:21.480Z,98452.03
2022-09-26T11:53:12.414Z,98457.97
2022-09-26T11:56:16.145Z,98459.38
2022-09-26T11:59:02.388Z,98466.13
2022-09-26T12:01:32.214Z,98467.41
2022-09-26T12:04:12.161Z,98468.22
2022-09-26T12:06:39.039Z,98457.59
2022-09-26T12:09:39.268Z,98459.16
2022-09-26T12:12:42.033Z,98447.19
2022-09-26T12:15:35.692Z,98462.56
2022-09-26T12:18:22.821Z,98459.72
2022-09-26T12:21:01.942Z,98454.28
2022-09-26T12:23:43.939Z,98455.94
2022-09-26T12:26:27.295Z,98451.41
2022-09-26T12:29:14.400Z,98444.66
2022-09-26T12:31:49.294Z,98451.13
2022-09-26T12:34:37.992Z,98440.75
2022-09-26T12:37:23.654Z,98448.19
2022-09-26T12:40:18.247Z,98437.59
2022-09-26T12:43:04.941Z,98435.03
2022-09-26T12:46:01.408Z,98429.69
2022-09-26T12:48:47.327Z,98420.91
2022-09-26T12:51:30.199Z,98425.69
2022-09-26T12:54:34.455Z,98414.88
2022-09-26T12:57:13.530Z,98407.78
2022-09-26T12:59:46.295Z,98409.59
2022-09-26T13:02:42.593Z,98413.94
2022-09-26T13:05:37.117Z,98405.91
2022-09-26T13:08:48.721Z,98408.97
2022-09-26T13:11:48.376Z,98390.66
2022-09-26T13:14:15.195Z,98403.00
2022-09-26T13:17:17.786Z,98409.06
2022-09-26T13:19:55.535Z,98414.41
2022-09-26T13:23:00.715Z,98406.78
2022-09-26T13:25:54.192Z,98408.47
2022-09-26T13:28:26.702Z,98401.09
2022-09-26T13:30:59.370Z,98405.53
2022-09-26T13:33:36.198Z,98413.00
2022-09-26T13:36:04.635Z,98398.16
2022-09-26T13:38:42.786Z,98392.91
2022-09-26T13:42:01.695Z,98390.38
2022-09-26T13:45:19.195Z,98383.91
2022-09-26T13:47:56.774Z,98389.66
2022-09-26T13:50:45.315Z,98399.28
2022-09-26T13:53:21.497Z,98405.09
2022-09-26T13:56:29.722Z,98400.34
2022-09-26T13:59:11.295Z,98392.25
2022-09-26T14:01:38.866Z,98401.75
2022-09-26T14:04:19.928Z,98399.44
2022-09-26T14:07:29.731Z,98407.53
2022-09-26T14:10:29.490Z,98416.28
2022-09-26T14:13:03.567Z,98420.53
2022-09-26T14:16:17.309Z,98416.94
2022-09-26T14:18:50.575Z,98411.69
2022-09-26T14:21:34.065Z,98424.63
2022-09-26T14:24:29.590Z,98429.56
2022-09-26T14:27:11.702Z,98420.97
2022-09-26T14:29:38.451Z,98417.59
2022-09-26T14:32:15.271Z,98413.78
2022-09-26T14:34:56.001Z,98413.75
2022-09-26T14:37:25.575Z,98410.56
2022-09-26T14:40:10.764Z,98409.72
2022-09-26T14:42:43.637Z,98423.63
2022-09-26T14:45:16.785Z,98415.91
2022-09-26T14:48:08.202Z,98415.78
2022-09-26T14:51:10.586Z,98431.69
2022-09-26T14:54:03.820Z,98425.56
2022-09-26T14:56:41.406Z,98427.59
2022-09-26T14:59:17.237Z,98426.81
2022-09-26T15:01:45.084Z,98424.31
2022-09-26T15:04:33.288Z,98431.41
2022-09-26T15:07:11.445Z,98431.44
2022-09-26T15:09:50.098Z,98434.19
2022-09-26T15:13:03.468Z,98428.22
2022-09-26T15:15:46.129Z,98423.69
2022-09-26T15:18:22.590Z,98420.53
2022-09-26T15:21:04.438Z,98422.34
2022-09-26T15:23:34.717Z,98420.63
2022-09-26T15:26:05.502Z,98408.34
2022-09-26T15:28:35.004Z,98419.75
2022-09-26T15:31:29.549Z,98421.28
2022-09-26T15:34:16.635Z,98417.91
2022-09-26T15:36:45.539Z,98416.28
2022-09-26T15:39:31.442Z,98412.13
2022-09-26T15:42:18.623Z,98410.34
2022-09-26T15:44:54.403Z,98413.03
2022-09-26T15:47:30.419Z,98412.25
2022-09-26T15:50:11.772Z,98409.81
2022-09-26T15:53:17.404Z,98408.91
2022-09-26T15:55:52.350Z,98384.84
2022-09-26T15:58:29.218Z,98392.81
2022-09-26T16:00:58.605Z,98390.88
2022-09-26T16:03:28.202Z,98399.66
2022-09-26T16:05:55.442Z,98390.19
2022-09-26T16:08:32.722Z,98388.09
2022-09-26T16:11:02.086Z,98385.63
2022-09-26T16:13:37.272Z,98392.56
2022-09-26T16:16:13.844Z,98391.00
2022-09-26T16:18:47.361Z,98395.28
2022-09-26T16:21:19.762Z,98390.00
2022-09-26T16:23:51.622Z,98385.28
2022-09-26T16:26:43.351Z,98386.06
2022-09-26T16:29:11.247Z,98396.03
2022-09-26T16:31:47.822Z,98389.72
2022-09-26T16:34:25.250Z,98395.00
2022-09-26T16:36:53.084Z,98386.47
2022-09-26T16:39:28.463Z,98387.31
2022-09-26T16:42:03.168Z,98377.94
2022-09-26T16:44:41.613Z,98371.06
2022-09-26T16:47:27.414Z,98372.75
2022-09-26T16:49:54.305Z,98367.47
2022-09-26T16:52:37.622Z,98367.47
2022-09-26T16:55:06.602Z,98368.53
2022-09-26T16:57:40.093Z,98357.88
2022-09-26T17:00:35.702Z,98363.84
2022-09-26T17:03:04.463Z,98362.38
2022-09-26T17:05:31.333Z,98356.09
2022-09-26T17:07:58.452Z,98363.03
2022-09-26T17:10:26.177Z,98364.94
2022-09-26T17:12:53.720Z,98376.91
2022-09-26T17:15:28.280Z,98381.41
2022-09-26T17:17:57.057Z,98379.59
2022-09-26T17:20:24.348Z,98375.47
2022-09-26T17:22:51.516Z,98374.59
2022-09-26T17:25:18.939Z,98380.38
2022-09-26T17:27:55.173Z,98389.53
2022-09-26T17:30:22.087Z,98383.44
2022-09-26T17:32:51.813Z,98384.22
2022-09-26T17:35:32.162Z,98380.72
2022-09-26T17:38:00.345Z,98379.91
2022-09-26T17:40:30.251Z,98378.06
2022-09-26T17:42:59.952Z,98371.16
2022-09-26T17:45:36.231Z,98370.09
2022-09-26T17:48:07.149Z,98369.38
2022-09-26T17:50:35.982Z,98372.88
2022-09-26T17:53:03.503Z,98366.75
2022-09-26T17:55:31.220Z,98366.97
2022-09-26T17:57:59.860Z,98365.00
2022-09-26T18:00:32.083Z,98372.72
2022-09-26T18:03:04.275Z,98365.56
2022-09-26T18:05:34.881Z,98365.91
2022-09-26T18:08:08.343Z,98360.44
2022-09-26T18:10:38.102Z,98349.31
2022-09-26T18:13:12.936Z,98358.16
2022-09-26T18:15:41.523Z,98364.84
2022-09-26T18:18:32.843Z,98351.03
2022-09-26T18:21:04.248Z,98347.06
2022-09-26T18:23:59.158Z,98349.53
2022-09-26T18:26:30.290Z,98341.75
2022-09-26T18:29:06.366Z,98329.94
2022-09-26T18:31:36.668Z,98332.47
2022-09-26T18:34:03.654Z,98343.00
2022-09-26T18:36:33.832Z,98333.38
2022-09-26T18:39:00.942Z,98339.53
2022-09-26T18:41:28.793Z,98345.69
2022-09-26T18:44:00.257Z,98342.25
2022-09-26T18:46:29.434Z,98356.88
2022-09-26T18:48:59.263Z,98364.19
2022-09-26T18:51:27.362Z,98355.22
2022-09-26T18:53:54.563Z,98362.03
2022-09-26T18:56:39.730Z,98359.47
2022-09-26T18:59:10.433Z,98349.25
2022-09-26T19:01:41.525Z,98341.31
2022-09-26T19:04:17.294Z,98345.81
2022-09-26T19:06:47.333Z,98343.97
2022-09-26T19:09:17.104Z,98335.09
2022-09-26T19:11:44.136Z,98326.91
2022-09-26T19:14:19.322Z,98332.06
2022-09-26T19:16:48.441Z,98327.88
2022-09-26T19:19:15.982Z,98332.13
2022-09-26T19:21:52.112Z,98325.84
2022-09-26T19:24:37.226Z,98334.50
2022-09-26T19:27:06.581Z,98320.72
2022-09-26T19:29:45.142Z,98317.38
2022-09-26T19:32:20.721Z,98321.91
2022-09-26T19:34:54.338Z,98310.66
2022-09-26T19:37:21.292Z,98308.75
2022-09-26T19:39:48.279Z,98310.56
2022-09-26T19:42:16.122Z,98300.13
2022-09-26T19:44:43.151Z,98304.44
2022-09-26T19:47:22.573Z,98292.94
2022-09-26T19:49:51.692Z,98289.34
2022-09-26T19:52:20.522Z,98287.44
2022-09-26T19:54:47.754Z,98284.94
2022-09-26T19:57:22.722Z,98283.16
2022-09-26T19:59:50.731Z,98278.16
2022-09-26T20:02:20.876Z,98283.16
2022-09-26T20:04:48.659Z,98277.94
2022-09-26T20:07:19.923Z,98267.41
2022-09-26T20:09:47.100Z,98261.06
2022-09-26T20:12:14.231Z,98263.72
2022-09-26T20:14:41.320Z,98265.56
2022-09-26T20:17:30.890Z,98274.44
2022-09-26T20:19:59.166Z,98280.31
2022-09-26T20:22:26.614Z,98273.34
2022-09-26T20:24:57.491Z,98283.84
2022-09-26T20:27:28.243Z,98284.56
2022-09-26T20:30:14.202Z,98291.75
2022-09-26T20:32:41.731Z,98298.47
2022-09-26T20:35:13.672Z,98288.94
2022-09-26T20:37:42.192Z,98278.50
2022-09-26T20:40:22.880Z,98281.03
2022-09-26T20:42:58.441Z,98293.78
2022-09-26T20:45:38.490Z,98284.41
2022-09-26T20:48:08.807Z,98281.81
2022-09-26T20:50:38.634Z,98295.50
2022-09-26T20:53:34.696Z,98294.69
2022-09-26T20:56:04.057Z,98290.34
2022-09-26T20:58:31.098Z,98288.47
2022-09-26T21:00:59.656Z,98279.78
2022-09-26T21:03:28.263Z,98279.59
2022-09-26T21:05:55.260Z,98280.41
2022-09-26T21:08:31.167Z,98276.91
2022-09-26T21:10:59.419Z,98269.94
2022-09-26T21:13:26.244Z,98266.25
2022-09-26T21:15:53.290Z,98274.19
2022-09-26T21:18:26.047Z,98272.81
2022-09-26T21:20:54.366Z,98270.78
2022-09-26T21:23:22.546Z,98281.44
2022-09-26T21:25:49.645Z,98261.66
2022-09-26T21:28:27.675Z,98259.47
2022-09-26T21:30:59.895Z,98256.13
2022-09-26T21:33:27.022Z,98262.28
2022-09-26T21:35:54.129Z,98266.13
2022-09-26T21:38:21.457Z,98261.34
2022-09-26T21:40:57.895Z,98270.66
2022-09-26T21:43:29.598Z,98258.50
2022-09-26T21:45:56.431Z,98255.06
2022-09-26T21:48:23.543Z,98260.94
2022-09-26T21:50:58.094Z,98251.25
2022-09-26T21:53:41.316Z,98233.00
2022-09-26T21:56:14.513Z,98238.16
2022-09-26T21:58:42.555Z,98234.66
2022-09-26T22:01:09.493Z,98230.31
2022-09-26T22:03:36.835Z,98235.63
2022-09-26T22:06:07.363Z,98233.94
2022-09-26T22:08:34.654Z,98228.66
2022-09-26T22:11:03.406Z,98230.53
2022-09-26T22:13:30.494Z,98234.81
2022-09-26T22:16:11.379Z,98227.94
2022-09-26T22:18:40.227Z,98230.69
2022-09-26T22:21:09.129Z,98231.63
2022-09-26T22:23:37.167Z,98227.31
2022-09-26T22:26:04.559Z,98227.22
2022-09-26T22:28:31.438Z,98218.50
2022-09-26T22:31:02.663Z,98219.38
2022-09-26T22:33:29.835Z,98217.56
2022-09-26T22:35:57.394Z,98212.31
2022-09-26T22:38:24.521Z,98214.19
2022-09-26T22:41:03.228Z,98205.38
2022-09-26T22:43:31.340Z,98192.25
2022-09-26T22:46:12.964Z,98187.88
2022-09-26T22:48:48.045Z,98196.59
2022-09-26T22:51:16.574Z,98192.91
2022-09-26T22:53:44.845Z,98187.66
2022-09-26T22:56:15.158Z,98179.84
2022-09-26T22:58:47.696Z,98180.72
2022-09-26T23:01:17.855Z,98168.63
2022-09-26T23:03:45.099Z,98171.06
2022-09-26T23:06:12.484Z,98175.38
2022-09-26T23:08:39.482Z,98171.97
2022-09-26T23:11:07.813Z,98175.47
2022-09-26T23:13:35.733Z,98175.50
2022-09-26T23:16:06.787Z,98181.59
2022-09-26T23:18:35.244Z,98178.91
2022-09-26T23:21:09.474Z,98166.00
2022-09-26T23:23:37.029Z,98167.56
2022-09-26T23:26:06.162Z,98149.44
2022-09-26T23:28:34.803Z,98152.97
2022-09-26T23:31:09.756Z,98151.16
2022-09-26T23:33:39.187Z,98157.19
2022-09-26T23:36:07.118Z,98142.50
2022-09-26T23:38:35.726Z,98147.69
2022-09-26T23:41:02.954Z,98141.50
2022-09-26T23:43:29.937Z,98132.91
2022-09-26T23:45:56.852Z,98137.09
2022-09-26T23:48:23.906Z,98136.28
2022-09-26T23:50:51.047Z,98124.13
2022-09-26T23:53:18.581Z,98118.94
2022-09-26T23:55:45.828Z,98114.56
2022-09-26T23:58:13.720Z,98115.38
